Time;durP1;ratioP1;P1;durP2;ratioP2;P2;SDS_P1;SDS_P2;PMS_P1;PMS_P2;Temp;Humidity;BMP_temperature;BMP_pressure;BME280_temperature;BME280_humidity;BME280_pressure;Samples;Min_cycle;Max_cycle;Signal;HPM_P1;HPM_P2
2021/09/14 00:01:11;;;;;;;4.82;1.55;;;22.20;63.50;;;;;;5049434;28;20052;-78
2021/09/14 00:03:36;;;;;;;2.22;1.73;;;22.20;63.90;;;;;;5057387;28;20025;-78
2021/09/14 00:06:02;;;;;;;3.97;1.55;;;22.10;63.80;;;;;;5049366;28;20033;-79
2021/09/14 00:08:28;;;;;;;3.13;1.80;;;22.00;64.20;;;;;;5037427;28;20018;-79
2021/09/14 00:10:54;;;;;;;3.25;1.67;;;22.00;64.40;;;;;;5037853;28;20120;-78
2021/09/14 00:13:19;;;;;;;2.78;1.80;;;22.00;64.30;;;;;;5037658;28;20369;-78
2021/09/14 00:15:45;;;;;;;2.33;1.88;;;21.90;64.40;;;;;;5044823;28;20083;-78
2021/09/14 00:18:11;;;;;;;2.30;2.10;;;21.80;64.80;;;;;;5037333;28;20026;-78
2021/09/14 00:20:37;;;;;;;2.30;1.73;;;21.80;64.60;;;;;;5037215;28;20439;-79
2021/09/14 00:23:03;;;;;;;2.10;1.67;;;21.80;64.80;;;;;;5037175;28;20083;-79
2021/09/14 00:25:32;;;;;;;2.25;1.70;;;21.70;64.90;;;;;;5037063;28;20033;-78
2021/09/14 00:28:03;;;;;;;2.15;1.75;;;21.80;65.20;;;;;;5045883;28;20048;-78
2021/09/14 00:30:29;;;;;;;2.35;1.80;;;21.70;65.20;;;;;;5052565;28;20036;-78
2021/09/14 00:32:55;;;;;;;2.40;1.70;;;21.60;65.40;;;;;;5035827;28;20033;-78
2021/09/14 00:35:21;;;;;;;2.78;1.80;;;21.60;65.60;;;;;;5036771;28;20455;-78
2021/09/14 00:37:46;;;;;;;2.25;1.60;;;21.60;65.60;;;;;;5052321;28;20394;-78
2021/09/14 00:40:13;;;;;;;3.17;1.88;;;21.60;65.60;;;;;;5037288;28;20434;-78
2021/09/14 00:42:38;;;;;;;3.45;2.08;;;21.60;65.70;;;;;;5048415;28;20021;-78
2021/09/14 00:45:08;;;;;;;2.72;1.70;;;21.60;66.00;;;;;;5056671;28;20557;-78
2021/09/14 00:47:34;;;;;;;2.83;2.30;;;21.50;66.10;;;;;;5056444;28;20033;-78
2021/09/14 00:50:00;;;;;;;2.40;1.75;;;21.50;66.20;;;;;;5047722;28;20116;-78
2021/09/14 00:52:27;;;;;;;2.38;1.90;;;21.50;66.30;;;;;;5036727;28;20021;-78
2021/09/14 00:54:53;;;;;;;2.60;1.98;;;21.50;66.50;;;;;;5036347;28;20420;-78
2021/09/14 00:57:19;;;;;;;3.10;2.50;;;21.50;66.40;;;;;;5035144;28;20022;-78
2021/09/14 00:59:45;;;;;;;3.20;2.08;;;21.40;66.60;;;;;;5036359;28;20586;-78
2021/09/14 01:02:10;;;;;;;3.63;2.30;;;21.30;66.70;;;;;;5036423;28;20499;-78
2021/09/14 01:04:36;;;;;;;2.75;1.95;;;21.40;66.70;;;;;;5036430;28;20051;-78
2021/09/14 01:07:02;;;;;;;2.42;1.90;;;21.40;66.90;;;;;;5036033;28;20052;-78
2021/09/14 01:09:31;;;;;;;2.53;2.25;;;21.30;66.50;;;;;;5036230;28;20021;-78
2021/09/14 01:11:58;;;;;;;2.42;1.80;;;21.40;66.60;;;;;;5036554;28;20021;-78
2021/09/14 01:14:24;;;;;;;2.92;2.20;;;21.40;66.30;;;;;;5035103;28;20036;-79
2021/09/14 01:16:50;;;;;;;2.17;1.63;;;21.50;66.10;;;;;;5033995;28;20022;-78
2021/09/14 01:19:20;;;;;;;2.10;1.77;;;21.50;66.00;;;;;;5035865;28;20032;-79
2021/09/14 01:21:45;;;;;;;1.80;1.60;;;21.50;66.00;;;;;;5034704;28;20037;-79
2021/09/14 01:24:13;;;;;;;2.95;1.80;;;21.60;65.70;;;;;;5036010;28;20400;-79
2021/09/14 01:26:39;;;;;;;2.05;1.70;;;21.70;65.40;;;;;;5039012;28;20026;-79
2021/09/14 01:29:09;;;;;;;3.35;1.85;;;21.70;65.60;;;;;;5063181;28;20025;-79
2021/09/14 01:31:36;;;;;;;2.33;1.70;;;21.70;65.40;;;;;;5071365;28;20489;-78
2021/09/14 01:34:02;;;;;;;3.72;1.73;;;21.70;65.70;;;;;;5035741;28;20024;-78
2021/09/14 01:36:32;;;;;;;3.03;1.98;;;21.70;65.70;;;;;;5035679;28;20036;-79
2021/09/14 01:38:57;;;;;;;2.87;2.03;;;21.70;65.60;;;;;;5035901;28;20034;-79
2021/09/14 01:41:23;;;;;;;2.67;2.13;;;21.70;65.80;;;;;;5035789;28;20363;-78
2021/09/14 01:43:50;;;;;;;2.70;2.20;;;21.70;65.80;;;;;;5035625;28;20025;-78
2021/09/14 01:46:15;;;;;;;2.53;1.90;;;21.70;66.10;;;;;;5035582;28;20071;-78
2021/09/14 01:48:41;;;;;;;2.22;1.88;;;21.70;66.00;;;;;;5035538;28;20073;-78
2021/09/14 01:51:07;;;;;;;2.38;1.90;;;21.70;66.00;;;;;;5035558;28;20029;-78
2021/09/14 01:53:53;;;;;;;2.20;1.80;;;21.70;66.30;;;;;;5035704;28;20036;-79
2021/09/14 01:56:19;;;;;;;2.30;1.95;;;21.80;66.30;;;;;;5035400;28;20044;-78
2021/09/14 01:59:03;;;;;;;2.85;1.92;;;21.60;66.90;;;;;;5034355;28;20041;-79
2021/09/14 02:01:32;;;;;;;2.30;1.90;;;21.60;67.00;;;;;;5035236;28;20480;-79
2021/09/14 02:04:03;;;;;;;2.20;1.80;;;21.60;67.30;;;;;;5035373;28;20026;-79
2021/09/14 02:39:03;;;;;;;3.20;2.25;;;21.60;72.00;;;;;;5039332;28;20463;-78
2021/09/14 03:00:51;;;;;;;5.88;3.35;;;21.90;73.20;;;;;;5043606;28;20041;-77
2021/09/14 03:03:17;;;;;;;4.45;2.90;;;21.90;72.60;;;;;;5040771;28;20026;-79
2021/09/14 03:05:42;;;;;;;4.35;3.00;;;21.90;72.90;;;;;;5057419;28;20468;-79
2021/09/14 03:08:08;;;;;;;3.42;2.72;;;21.90;73.90;;;;;;5052009;28;21057;-79
2021/09/14 03:10:34;;;;;;;5.88;2.88;;;21.80;74.60;;;;;;5038844;28;20483;-79
2021/09/14 03:13:01;;;;;;;3.63;3.00;;;21.80;74.60;;;;;;5038355;28;20103;-79
2021/09/14 03:15:26;;;;;;;4.55;2.80;;;21.70;75.10;;;;;;5053709;28;20026;-78
2021/09/14 03:17:52;;;;;;;4.15;3.20;;;21.70;76.00;;;;;;5038190;28;20029;-79
2021/09/14 03:20:18;;;;;;;4.05;2.97;;;21.70;75.80;;;;;;5038457;28;20025;-79
2021/09/14 03:22:43;;;;;;;4.03;3.50;;;21.60;76.20;;;;;;5038193;28;20017;-79
2021/09/14 03:25:10;;;;;;;4.88;3.35;;;21.70;76.70;;;;;;5038337;28;20098;-79
2021/09/14 03:27:36;;;;;;;4.25;3.65;;;21.60;76.60;;;;;;5041198;28;20037;-79
2021/09/14 03:30:04;;;;;;;6.00;3.65;;;21.70;76.80;;;;;;5065265;28;20033;-79
2021/09/14 03:32:30;;;;;;;5.20;3.97;;;21.60;77.10;;;;;;5058035;28;20487;-79
2021/09/14 03:34:56;;;;;;;6.10;3.65;;;21.60;76.70;;;;;;5058004;28;20087;-79
2021/09/14 03:37:21;;;;;;;4.90;3.10;;;21.60;76.60;;;;;;5058320;28;20087;-78
2021/09/14 03:39:47;;;;;;;4.97;4.05;;;21.60;76.50;;;;;;5042581;28;20029;-79
2021/09/14 03:42:13;;;;;;;5.60;3.75;;;21.60;76.90;;;;;;5036760;28;20029;-79
2021/09/14 03:44:38;;;;;;;5.10;4.18;;;21.50;77.10;;;;;;5037890;28;20036;-79
2021/09/14 03:47:09;;;;;;;4.68;3.72;;;21.40;77.20;;;;;;5037548;28;20069;-79
2021/09/14 03:49:35;;;;;;;6.60;4.10;;;21.40;77.20;;;;;;5037909;28;20483;-78
2021/09/14 03:52:00;;;;;;;4.05;3.30;;;21.40;77.10;;;;;;5048802;28;20051;-79
2021/09/14 03:54:26;;;;;;;4.18;3.65;;;21.40;77.00;;;;;;5055242;28;20100;-79
2021/09/14 03:56:52;;;;;;;4.15;3.67;;;21.40;76.90;;;;;;5037737;28;20041;-79
2021/09/14 03:59:18;;;;;;;4.05;3.47;;;21.40;77.10;;;;;;5037679;28;20141;-79
2021/09/14 04:01:49;;;;;;;4.18;3.63;;;21.30;77.40;;;;;;5045890;28;20061;-79
2021/09/14 04:04:34;;;;;;;4.45;3.40;;;21.30;77.30;;;;;;5037746;28;20034;-79
2021/09/14 04:09:36;;;;;;;4.35;3.30;;;21.30;77.20;;;;;;5037698;28;20040;-79
2021/09/14 04:12:02;;;;;;;4.38;3.97;;;21.30;78.10;;;;;;5036084;28;20029;-79
2021/09/14 04:14:29;;;;;;;4.95;3.90;;;21.30;77.40;;;;;;5037218;28;20013;-79
2021/09/14 04:16:55;;;;;;;4.60;4.00;;;21.20;77.60;;;;;;5037249;28;20102;-79
2021/09/14 04:19:21;;;;;;;5.03;3.80;;;21.20;77.50;;;;;;5050487;28;20033;-78
2021/09/14 04:21:47;;;;;;;4.82;3.53;;;21.10;78.70;;;;;;5055394;28;20032;-86
2021/09/14 04:24:13;;;;;;;5.10;4.05;;;21.10;78.80;;;;;;5055966;28;20035;-82
2021/09/14 04:26:39;;;;;;;4.95;3.97;;;21.10;78.50;;;;;;5055876;28;20096;-81
2021/09/14 04:29:05;;;;;;;3.80;3.40;;;21.10;78.10;;;;;;5057009;28;20511;-81
2021/09/14 04:31:30;;;;;;;6.20;3.92;;;21.20;78.20;;;;;;5036854;28;20025;-83
2021/09/14 04:33:56;;;;;;;5.03;3.78;;;20.90;78.90;;;;;;5037401;28;20795;-83
2021/09/14 04:36:23;;;;;;;4.10;3.42;;;20.80;79.30;;;;;;5040805;28;20026;-83
2021/09/14 04:38:48;;;;;;;6.65;3.92;;;20.70;80.00;;;;;;5037172;28;20033;-83
2021/09/14 04:41:14;;;;;;;4.05;3.65;;;20.60;80.30;;;;;;5036619;28;20088;-82
2021/09/14 04:43:40;;;;;;;8.02;3.83;;;20.80;79.80;;;;;;5056757;28;20029;-82
2021/09/14 04:46:06;;;;;;;4.75;4.07;;;20.70;79.90;;;;;;5050621;28;20039;-86
2021/09/14 04:48:31;;;;;;;5.57;4.00;;;20.70;79.90;;;;;;5036675;28;20033;-80
2021/09/14 04:50:57;;;;;;;5.78;3.72;;;20.80;79.80;;;;;;5036404;28;20021;-87
2021/09/14 04:53:23;;;;;;;4.63;3.38;;;20.80;79.60;;;;;;5052386;28;20021;-80
2021/09/14 04:55:48;;;;;;;4.53;4.00;;;20.60;80.40;;;;;;5035382;28;20064;-82
2021/09/14 04:58:14;;;;;;;4.40;3.40;;;20.70;80.20;;;;;;5050801;28;20396;-82
2021/09/14 05:00:40;;;;;;;5.10;4.20;;;20.70;80.00;;;;;;5036419;28;20029;-81
2021/09/14 05:03:05;;;;;;;4.43;3.70;;;20.80;79.80;;;;;;5034921;28;20040;-81
2021/09/14 05:05:31;;;;;;;4.70;4.00;;;20.80;79.50;;;;;;5036447;28;20087;-79
2021/09/14 05:07:57;;;;;;;4.75;4.15;;;20.80;79.60;;;;;;5036388;28;20029;-79
2021/09/14 05:10:22;;;;;;;4.40;4.00;;;20.80;79.80;;;;;;5036324;28;20021;-81
2021/09/14 05:12:54;;;;;;;4.75;4.07;;;20.80;79.30;;;;;;5039261;28;20518;-86
2021/09/14 05:15:19;;;;;;;5.10;4.28;;;20.80;79.50;;;;;;5047535;28;20025;-77
2021/09/14 05:17:45;;;;;;;5.82;4.40;;;20.80;79.30;;;;;;5050706;28;20083;-77
2021/09/14 05:20:13;;;;;;;6.38;3.92;;;20.80;79.20;;;;;;5038973;28;20408;-79
2021/09/14 05:22:41;;;;;;;7.07;4.45;;;20.80;79.00;;;;;;5047631;28;20017;-77
2021/09/14 05:25:07;;;;;;;7.53;4.95;;;20.90;78.90;;;;;;5054659;28;20029;-77
2021/09/14 05:27:33;;;;;;;5.03;4.30;;;20.90;79.10;;;;;;5043590;28;20116;-75
2021/09/14 05:29:58;;;;;;;4.80;4.40;;;20.90;78.90;;;;;;5056429;28;20053;-76
2021/09/14 05:32:25;;;;;;;7.47;5.60;;;20.80;79.30;;;;;;5055692;28;20029;-76
2021/09/14 05:34:51;;;;;;;6.13;4.90;;;20.80;79.10;;;;;;5031084;28;20116;-76
2021/09/14 05:37:18;;;;;;;7.15;5.13;;;20.80;78.70;;;;;;5035298;28;20053;-76
2021/09/14 05:39:44;;;;;;;5.60;4.60;;;20.90;78.30;;;;;;5035196;28;20022;-76
2021/09/14 05:42:10;;;;;;;5.30;4.70;;;20.90;78.60;;;;;;5038862;28;20021;-75
2021/09/14 05:44:36;;;;;;;6.38;4.78;;;20.90;78.20;;;;;;5055126;28;20055;-75
2021/09/14 05:47:03;;;;;;;4.55;4.10;;;20.90;78.60;;;;;;5053825;28;20029;-75
2021/09/14 05:49:28;;;;;;;6.40;4.40;;;20.90;78.60;;;;;;5053769;28;20024;-75
2021/09/14 05:51:55;;;;;;;9.55;4.68;;;20.90;79.00;;;;;;5055360;28;20025;-75
2021/09/14 05:54:20;;;;;;;5.43;4.53;;;20.80;79.20;;;;;;5055320;28;20037;-75
2021/09/14 05:56:46;;;;;;;5.80;4.50;;;20.70;79.50;;;;;;5049800;28;20037;-75
2021/09/14 05:59:12;;;;;;;4.80;4.20;;;20.60;79.90;;;;;;5034477;28;20140;-75
2021/09/14 06:01:37;;;;;;;7.18;4.68;;;20.60;79.80;;;;;;5050743;28;20029;-75
2021/09/14 06:04:03;;;;;;;6.28;4.85;;;20.50;80.20;;;;;;5034634;28;20061;-75
2021/09/14 06:06:29;;;;;;;7.57;5.35;;;20.70;79.80;;;;;;5035549;28;20063;-75
2021/09/14 06:08:55;;;;;;;6.32;5.53;;;20.80;79.70;;;;;;5035267;28;20087;-75
2021/09/14 06:11:20;;;;;;;7.15;5.45;;;20.70;79.60;;;;;;5035432;28;20091;-75
2021/09/14 06:13:46;;;;;;;9.35;5.05;;;20.60;80.10;;;;;;5034253;28;20029;-75
2021/09/14 06:16:12;;;;;;;5.47;4.75;;;20.60;80.10;;;;;;5035345;28;20052;-75
2021/09/14 06:18:38;;;;;;;6.68;5.00;;;20.70;80.00;;;;;;5035225;28;20073;-75
2021/09/14 06:21:04;;;;;;;6.22;5.50;;;20.80;79.90;;;;;;5035158;28;20434;-75
2021/09/14 06:23:30;;;;;;;6.13;5.60;;;20.80;79.30;;;;;;5050927;28;20033;-76
2021/09/14 06:25:56;;;;;;;5.88;5.28;;;20.80;79.40;;;;;;5053770;28;20200;-75
2021/09/14 06:28:21;;;;;;;5.88;5.13;;;20.80;79.60;;;;;;5062910;28;20372;-75
2021/09/14 06:30:47;;;;;;;6.38;5.47;;;20.80;79.60;;;;;;5073798;28;20021;-76
2021/09/14 06:33:13;;;;;;;8.07;5.53;;;20.80;79.80;;;;;;5051879;28;20116;-75
2021/09/14 06:35:38;;;;;;;6.40;5.28;;;20.80;79.80;;;;;;5035155;28;20036;-75
2021/09/14 06:38:04;;;;;;;7.22;5.25;;;20.80;80.10;;;;;;5052826;28;20032;-75
2021/09/14 06:40:32;;;;;;;9.98;6.20;;;20.70;80.40;;;;;;5050713;28;20966;-75
2021/09/14 06:42:57;;;;;;;8.02;5.32;;;20.60;80.80;;;;;;5035087;28;20021;-75
2021/09/14 06:45:23;;;;;;;6.75;5.43;;;20.50;81.40;;;;;;5035155;28;20029;-76
2021/09/14 06:47:49;;;;;;;6.45;5.85;;;20.50;81.30;;;;;;5033619;28;20047;-75
2021/09/14 06:50:15;;;;;;;7.68;6.10;;;20.60;81.20;;;;;;5034853;28;20061;-75
2021/09/14 06:52:46;;;;;;;6.43;5.72;;;20.50;81.40;;;;;;5034957;28;20029;-75
2021/09/14 06:55:11;;;;;;;6.18;5.53;;;20.50;81.40;;;;;;5035001;28;20123;-75
2021/09/14 06:57:37;;;;;;;6.75;5.68;;;20.60;81.30;;;;;;5039874;28;20025;-75
2021/09/14 07:00:03;;;;;;;7.10;6.03;;;20.60;81.30;;;;;;5054967;28;20551;-75
2021/09/14 07:02:29;;;;;;;7.72;5.47;;;20.70;81.30;;;;;;5046870;28;20029;-75
2021/09/14 07:04:55;;;;;;;6.55;5.78;;;20.70;81.10;;;;;;5033479;28;20037;-75
2021/09/14 07:07:20;;;;;;;7.97;6.43;;;20.60;81.20;;;;;;5034738;28;20124;-75
2021/09/14 07:09:46;;;;;;;8.90;6.32;;;20.60;81.60;;;;;;5034796;28;20034;-75
2021/09/14 07:12:12;;;;;;;7.22;5.80;;;20.60;81.80;;;;;;5035043;28;20101;-75
2021/09/14 07:14:38;;;;;;;7.82;5.45;;;20.60;81.60;;;;;;5034941;28;20032;-76
2021/09/14 07:17:04;;;;;;;7.38;5.80;;;20.70;81.80;;;;;;5038445;28;20049;-75
2021/09/14 07:19:29;;;;;;;7.13;5.45;;;20.60;81.80;;;;;;5038327;28;20037;-75
2021/09/14 07:21:55;;;;;;;9.10;6.32;;;20.60;82.10;;;;;;5038199;28;20026;-75
2021/09/14 07:24:21;;;;;;;7.10;6.00;;;20.60;81.90;;;;;;5038579;28;20403;-75
2021/09/14 07:26:46;;;;;;;7.15;6.30;;;20.70;81.60;;;;;;5038072;28;20390;-75
2021/09/14 07:29:12;;;;;;;9.18;6.15;;;20.80;81.80;;;;;;5067552;28;20025;-75
2021/09/14 07:31:41;;;;;;;8.52;5.63;;;20.70;82.10;;;;;;5043033;28;20101;-75
2021/09/14 07:34:06;;;;;;;8.30;6.03;;;20.80;81.90;;;;;;5038122;28;20380;-75
2021/09/14 07:36:32;;;;;;;12.45;6.25;;;20.80;81.80;;;;;;5038144;28;20102;-75
2021/09/14 07:38:57;;;;;;;8.23;5.82;;;20.90;81.70;;;;;;5038055;28;20033;-75
2021/09/14 07:41:23;;;;;;;6.88;5.22;;;20.90;81.50;;;;;;5036949;28;20783;-75
2021/09/14 07:43:49;;;;;;;7.25;5.43;;;21.00;81.10;;;;;;5037727;28;20025;-75
2021/09/14 07:46:15;;;;;;;5.13;4.63;;;21.00;81.10;;;;;;5037855;28;20106;-76
2021/09/14 07:48:40;;;;;;;8.10;5.25;;;21.20;80.90;;;;;;5037979;28;20033;-75
2021/09/14 07:51:06;;;;;;;8.57;5.30;;;21.20;80.70;;;;;;5037824;28;20028;-75
2021/09/14 07:53:32;;;;;;;9.60;4.70;;;21.20;80.20;;;;;;5051973;28;20026;-75
2021/09/14 07:55:58;;;;;;;9.38;4.90;;;21.20;80.20;;;;;;5037576;28;20050;-75
2021/09/14 07:58:23;;;;;;;5.88;4.10;;;21.20;80.30;;;;;;5037790;28;20041;-75
2021/09/14 08:00:49;;;;;;;5.00;4.38;;;21.30;80.20;;;;;;5037825;28;20033;-75
2021/09/14 08:03:14;;;;;;;5.95;4.28;;;21.30;80.20;;;;;;5036115;28;20030;-75
2021/09/14 08:05:40;;;;;;;8.00;4.47;;;21.30;80.30;;;;;;5037724;28;20102;-75
2021/09/14 08:08:07;;;;;;;8.73;4.57;;;21.40;79.90;;;;;;5037356;28;20022;-75
2021/09/14 08:10:37;;;;;;;6.05;4.03;;;21.60;79.80;;;;;;5036332;28;20029;-75
2021/09/14 08:13:03;;;;;;;7.18;4.63;;;21.60;79.50;;;;;;5039073;28;20026;-75
2021/09/14 08:15:29;;;;;;;6.68;3.88;;;21.70;79.40;;;;;;5057418;28;20033;-75
2021/09/14 08:17:55;;;;;;;6.45;3.85;;;21.70;79.10;;;;;;5057176;28;20446;-75
2021/09/14 08:20:22;;;;;;;6.07;3.47;;;21.70;79.20;;;;;;5057234;28;20021;-75
2021/09/14 08:22:47;;;;;;;4.40;3.30;;;21.80;79.00;;;;;;5037309;28;20454;-75
2021/09/14 08:25:13;;;;;;;4.80;3.28;;;21.80;78.40;;;;;;5037189;28;20018;-75
2021/09/14 08:27:41;;;;;;;5.50;3.30;;;21.80;78.70;;;;;;5039197;28;20096;-75
2021/09/14 08:30:08;;;;;;;6.57;3.47;;;22.00;78.00;;;;;;5047881;28;20022;-75
2021/09/14 08:32:34;;;;;;;5.63;3.30;;;22.00;78.10;;;;;;5036937;28;20047;-75
2021/09/14 08:34:59;;;;;;;3.95;3.00;;;22.00;77.90;;;;;;5036805;28;20044;-75
2021/09/14 08:37:25;;;;;;;5.03;3.22;;;22.10;77.70;;;;;;5036984;28;20033;-75
2021/09/14 08:39:51;;;;;;;3.80;3.30;;;22.30;77.70;;;;;;5038632;28;20029;-75
2021/09/14 08:42:20;;;;;;;6.32;3.85;;;22.30;77.40;;;;;;5056757;28;20492;-75
2021/09/14 08:44:45;;;;;;;6.25;3.60;;;22.30;78.20;;;;;;5037129;28;20068;-75
2021/09/14 08:47:11;;;;;;;5.72;3.03;;;22.30;78.00;;;;;;5036606;28;20033;-75
2021/09/14 08:49:37;;;;;;;7.47;3.35;;;22.30;77.70;;;;;;5036591;28;20471;-75
2021/09/14 08:52:03;;;;;;;3.97;3.13;;;22.30;77.30;;;;;;5036671;28;20037;-75
2021/09/14 08:54:29;;;;;;;5.88;3.35;;;22.50;77.30;;;;;;5036470;28;20045;-75
2021/09/14 08:56:55;;;;;;;5.05;3.30;;;22.70;76.00;;;;;;5036433;28;20044;-76
2021/09/14 08:59:28;;;;;;;5.72;3.30;;;22.80;76.30;;;;;;5036659;28;20037;-75
2021/09/14 09:02:06;;;;;;;4.50;3.00;;;22.90;75.20;;;;;;5052025;28;20047;-76
2021/09/14 09:04:33;;;;;;;4.65;3.25;;;22.80;75.80;;;;;;5036165;28;20026;-76
2021/09/14 09:06:58;;;;;;;6.75;3.38;;;22.80;75.70;;;;;;5036242;28;20021;-76
2021/09/14 09:09:26;;;;;;;5.40;3.13;;;23.30;75.40;;;;;;5036356;28;20017;-76
2021/09/14 09:12:08;;;;;;;6.55;2.75;;;23.60;73.00;;;;;;5050646;28;20025;-75
2021/09/14 09:14:42;;;;;;;4.78;2.78;;;23.50;72.80;;;;;;5056474;28;20025;-75
2021/09/14 09:17:17;;;;;;;4.65;2.85;;;23.60;73.00;;;;;;5054553;28;20029;-76
2021/09/14 09:19:53;;;;;;;5.82;2.75;;;23.40;74.10;;;;;;5050310;28;20021;-75
2021/09/14 09:22:19;;;;;;;8.18;2.95;;;23.50;74.30;;;;;;5036215;28;20029;-76
2021/09/14 09:24:48;;;;;;;4.63;2.75;;;23.40;73.30;;;;;;5035770;28;20755;-76
2021/09/14 09:27:17;;;;;;;5.63;3.10;;;23.30;73.30;;;;;;5036039;28;20033;-75
2021/09/14 09:29:42;;;;;;;5.13;2.67;;;23.30;74.10;;;;;;5054404;28;20559;-76
2021/09/14 09:32:08;;;;;;;3.67;2.78;;;23.50;74.30;;;;;;5035892;28;20033;-75
2021/09/14 09:34:34;;;;;;;6.30;3.42;;;23.70;73.50;;;;;;5035910;28;20487;-76
2021/09/14 09:37:06;;;;;;;5.18;2.90;;;23.80;73.40;;;;;;5035855;28;20064;-75
2021/09/14 09:39:44;;;;;;;5.68;2.92;;;23.90;72.10;;;;;;5035005;28;20021;-76
2021/09/14 09:42:11;;;;;;;3.72;2.42;;;23.80;72.60;;;;;;5035766;28;20115;-76
2021/09/14 09:44:37;;;;;;;4.18;2.75;;;23.70;72.60;;;;;;5035664;28;20025;-76
2021/09/14 09:47:03;;;;;;;5.38;3.10;;;23.80;72.30;;;;;;5035331;28;20589;-75
2021/09/14 09:49:29;;;;;;;8.18;2.72;;;24.00;71.50;;;;;;5035694;28;20044;-76
2021/09/14 09:51:59;;;;;;;5.72;2.95;;;24.10;70.90;;;;;;5034747;28;20029;-76
2021/09/14 09:54:25;;;;;;;;;;;24.10;70.80;;;;;;5036303;28;20119;-76
2021/09/14 09:56:53;;;;;;;5.88;3.08;;;24.40;70.60;;;;;;5051467;28;19921;-76
2021/09/14 09:59:19;;;;;;;5.45;2.60;;;24.80;70.40;;;;;;5053800;28;20106;-75
2021/09/14 10:02:06;;;;;;;6.43;3.05;;;24.80;69.60;;;;;;5035608;28;20026;-76
2021/09/14 10:04:42;;;;;;;6.72;3.10;;;24.70;69.10;;;;;;5035539;28;20400;-76
2021/09/14 10:07:10;;;;;;;5.35;3.15;;;24.70;69.40;;;;;;5035415;28;20026;-76
2021/09/14 10:09:36;;;;;;;6.53;3.00;;;24.80;69.00;;;;;;5035371;28;20053;-75
2021/09/14 10:12:01;;;;;;;5.72;2.80;;;24.70;69.50;;;;;;5035368;28;20050;-76
2021/09/14 10:14:27;;;;;;;5.00;2.63;;;24.40;70.00;;;;;;5039648;28;20029;-76
2021/09/14 10:17:04;;;;;;;7.50;2.85;;;24.30;70.10;;;;;;5035154;28;20061;-77
2021/09/14 10:19:33;;;;;;;5.45;2.78;;;24.50;70.40;;;;;;5035319;28;20041;-76
2021/09/14 10:22:12;;;;;;;4.22;2.42;;;24.80;69.10;;;;;;5035239;28;20060;-76
2021/09/14 10:24:49;;;;;;;5.90;2.40;;;24.90;69.10;;;;;;5035380;28;20135;-76
2021/09/14 10:27:15;;;;;;;6.03;2.65;;;25.20;67.80;;;;;;5050305;28;20124;-76
2021/09/14 10:29:41;;;;;;;4.97;2.70;;;25.30;66.40;;;;;;5050568;28;20022;-76
2021/09/14 10:32:14;;;;;;;3.90;2.17;;;25.40;67.60;;;;;;5035156;28;20116;-76
2021/09/14 10:35:00;;;;;;;6.10;2.45;;;25.50;67.00;;;;;;5035046;28;20022;-76
2021/09/14 10:37:32;;;;;;;4.75;1.98;;;25.50;64.70;;;;;;5034962;28;20516;-76
2021/09/14 10:40:13;;;;;;;3.45;1.88;;;25.70;64.30;;;;;;5035252;28;20040;-77
2021/09/14 10:42:42;;;;;;;4.75;2.15;;;26.00;64.60;;;;;;5034732;28;20025;-76
2021/09/14 10:45:14;;;;;;;3.28;1.83;;;26.00;62.60;;;;;;5035043;28;20025;-76
2021/09/14 10:47:46;;;;;;;5.30;2.38;;;25.90;63.00;;;;;;5034997;28;20029;-77
2021/09/14 10:50:28;;;;;;;5.85;1.73;;;25.90;63.20;;;;;;5037697;28;20052;-76
2021/09/14 10:53:02;;;;;;;3.95;1.95;;;25.80;62.90;;;;;;5038908;28;20053;-76
2021/09/14 10:55:30;;;;;;;5.10;2.00;;;25.80;63.50;;;;;;5038815;28;20499;-76
2021/09/14 10:58:02;;;;;;;6.70;2.15;;;25.70;62.70;;;;;;5054122;28;20041;-76
2021/09/14 11:00:31;;;;;;;4.40;1.70;;;25.80;63.20;;;;;;5037626;28;20029;-76
2021/09/14 11:03:03;;;;;;;;;;;26.10;62.30;;;;;;5039186;28;20492;-77
2021/09/14 11:05:35;;;;;;;5.85;2.10;;;26.10;62.70;;;;;;5038511;28;19905;-76
2021/09/14 11:08:05;;;;;;;2.80;1.77;;;26.40;61.00;;;;;;5038798;28;20503;-76
2021/09/14 11:10:36;;;;;;;1.95;1.50;;;26.30;61.70;;;;;;5038471;28;20055;-76
2021/09/14 11:13:03;;;;;;;4.18;2.05;;;26.20;61.70;;;;;;5038534;28;20041;-76
2021/09/14 11:15:29;;;;;;;4.47;1.95;;;25.90;62.50;;;;;;5038247;28;20021;-76
2021/09/14 11:17:55;;;;;;;4.45;1.95;;;26.00;62.30;;;;;;5038331;28;20412;-76
2021/09/14 11:20:25;;;;;;;4.95;2.42;;;25.90;62.80;;;;;;5038413;28;20029;-76
2021/09/14 11:22:52;;;;;;;3.70;1.83;;;26.00;63.00;;;;;;5038345;28;20021;-76
2021/09/14 11:25:20;;;;;;;3.40;1.90;;;26.30;61.40;;;;;;5038356;28;20029;-76
2021/09/14 11:28:01;;;;;;;4.07;1.92;;;26.50;60.80;;;;;;5059317;28;20098;-76
2021/09/14 11:30:30;;;;;;;2.05;1.40;;;26.50;60.10;;;;;;5049275;28;20488;-77
2021/09/14 11:32:56;;;;;;;6.30;1.92;;;26.40;61.10;;;;;;5037953;28;20048;-77
2021/09/14 11:35:22;;;;;;;4.35;1.73;;;26.60;61.40;;;;;;5038088;28;20159;-77
2021/09/14 11:38:02;;;;;;;3.95;1.77;;;26.40;60.10;;;;;;5038151;28;20033;-76
2021/09/14 11:40:28;;;;;;;4.20;1.92;;;26.30;61.00;;;;;;5053489;28;20040;-77
2021/09/14 11:42:59;;;;;;;7.47;2.20;;;26.30;61.40;;;;;;5037952;28;20059;-76
2021/09/14 11:45:27;;;;;;;5.35;2.03;;;26.20;62.50;;;;;;5036729;28;20029;-76
2021/09/14 11:47:54;;;;;;;3.08;1.85;;;26.30;61.60;;;;;;5037894;28;20033;-76
2021/09/14 11:50:30;;;;;;;4.65;2.03;;;26.30;61.30;;;;;;5037959;28;20018;-75
2021/09/14 11:53:08;;;;;;;5.43;1.67;;;26.30;59.60;;;;;;5056280;28;20049;-76
2021/09/14 11:55:39;;;;;;;6.57;2.30;;;26.00;61.10;;;;;;5051784;28;20052;-77
2021/09/14 11:58:04;;;;;;;4.35;1.70;;;26.00;61.20;;;;;;5037668;28;20021;-76
2021/09/14 12:00:48;;;;;;;3.60;2.00;;;25.80;61.70;;;;;;5037275;28;20384;-76
2021/09/14 12:03:21;;;;;;;2.22;1.40;;;25.80;61.80;;;;;;5036282;28;20024;-76
2021/09/14 12:05:57;;;;;;;3.80;1.92;;;26.00;61.30;;;;;;5037440;28;20443;-76
2021/09/14 12:08:34;;;;;;;4.43;1.85;;;26.00;61.30;;;;;;5037436;28;20025;-75
2021/09/14 12:11:03;;;;;;;5.10;1.50;;;26.00;61.50;;;;;;5037998;28;20034;-76
2021/09/14 12:13:42;;;;;;;4.93;2.08;;;26.10;60.70;;;;;;5037511;28;20029;-76
2021/09/14 12:16:12;;;;;;;4.10;1.80;;;26.30;61.10;;;;;;5038716;28;20112;-76
2021/09/14 12:18:40;;;;;;;4.13;1.80;;;26.40;61.50;;;;;;5057221;28;20028;-76
2021/09/14 12:21:06;;;;;;;5.07;2.00;;;26.40;59.90;;;;;;5057468;28;20037;-76
2021/09/14 12:23:32;;;;;;;4.13;1.80;;;26.40;60.10;;;;;;5057294;28;20104;-76
2021/09/14 12:25:58;;;;;;;2.72;1.55;;;26.40;60.70;;;;;;5052567;28;20461;-75
2021/09/14 12:28:24;;;;;;;4.45;1.80;;;26.40;60.90;;;;;;5053296;28;20048;-75
2021/09/14 12:30:50;;;;;;;4.75;1.90;;;26.50;58.60;;;;;;5073411;28;20024;-76
2021/09/14 12:33:16;;;;;;;4.35;1.80;;;26.50;58.80;;;;;;5055678;28;20029;-76
2021/09/14 12:35:43;;;;;;;2.58;1.60;;;26.60;59.30;;;;;;5056945;28;20036;-76
2021/09/14 12:38:09;;;;;;;4.03;1.70;;;26.80;59.70;;;;;;5043533;28;20487;-76
2021/09/14 12:40:35;;;;;;;4.85;1.77;;;26.90;59.70;;;;;;5037264;28;20092;-75
2021/09/14 12:43:00;;;;;;;4.78;1.60;;;26.90;57.60;;;;;;5036895;28;20021;-76
2021/09/14 12:45:26;;;;;;;3.80;1.65;;;27.00;57.80;;;;;;5037052;28;20084;-76
2021/09/14 12:47:52;;;;;;;2.45;1.20;;;27.20;57.80;;;;;;5049863;28;20031;-76
2021/09/14 12:50:17;;;;;;;3.67;1.33;;;27.30;56.00;;;;;;5056937;28;20033;-76
2021/09/14 12:52:43;;;;;;;4.57;1.58;;;27.30;56.10;;;;;;5045155;28;20472;-76
2021/09/14 12:55:09;;;;;;;3.47;1.65;;;27.30;56.20;;;;;;5036471;28;20061;-75
2021/09/14 12:57:35;;;;;;;2.88;1.58;;;27.30;56.30;;;;;;5036495;28;20079;-76
2021/09/14 13:00:00;;;;;;;3.83;1.30;;;27.40;55.20;;;;;;5036551;28;20029;-76
2021/09/14 13:02:26;;;;;;;1.65;1.20;;;27.30;55.30;;;;;;5036383;28;20060;-76
2021/09/14 13:04:52;;;;;;;2.80;1.40;;;27.10;55.70;;;;;;5042390;28;20468;-75
2021/09/14 13:07:18;;;;;;;2.78;1.25;;;27.00;55.60;;;;;;5056447;28;20096;-75
2021/09/14 13:09:43;;;;;;;4.28;1.60;;;27.10;56.20;;;;;;5055072;28;20063;-75
2021/09/14 13:12:10;;;;;;;2.17;1.45;;;26.90;55.60;;;;;;5055898;28;20067;-76
2021/09/14 13:17:20;;;;;;;3.28;1.52;;;26.60;57.70;;;;;;5036226;28;20396;-75
2021/09/14 13:19:46;;;;;;;4.85;1.80;;;26.60;57.40;;;;;;5036281;28;20033;-76
2021/09/14 13:22:12;;;;;;;2.70;1.52;;;26.80;57.30;;;;;;5036040;28;20046;-76
2021/09/14 13:24:38;;;;;;;3.22;1.67;;;26.80;56.00;;;;;;5036454;28;20467;-76
2021/09/14 13:27:04;;;;;;;5.10;1.70;;;26.80;55.60;;;;;;5035919;28;20033;-76
2021/09/14 13:29:30;;;;;;;2.42;1.20;;;27.00;55.50;;;;;;5070096;28;20568;-77
2021/09/14 13:31:55;;;;;;;3.13;1.60;;;27.30;56.70;;;;;;5063528;28;20101;-75
2021/09/14 13:34:21;;;;;;;2.83;1.40;;;27.30;55.60;;;;;;5034750;28;20033;-76
2021/09/14 13:36:47;;;;;;;2.95;1.45;;;27.40;55.00;;;;;;5035679;28;20462;-76
2021/09/14 13:39:13;;;;;;;4.75;2.45;;;27.30;54.60;;;;;;5036036;28;20033;-76
2021/09/14 13:41:42;;;;;;;5.50;1.80;;;27.60;54.10;;;;;;5050199;28;20033;-76
2021/09/14 13:47:00;;;;;;;3.50;1.77;;;27.20;55.80;;;;;;5035586;28;20064;-76
2021/09/14 13:49:26;;;;;;;2.53;1.40;;;26.90;55.30;;;;;;5035784;28;20094;-76